<?xml version="1.0" encoding="UTF-8" standalone="no" ?>
<gpx xmlns="http://www.topografix.com/GPX/1/1" xmlns:xsi="http://www.w3.org/2001/XMLSchema-instance" xsi:schemaLocation="http://www.topografix.com/GPX/1/1 http://www.topografix.com/GPX/1/1/gpx.xsd" version="1.1" creator="VisuGPX - https://www.visugpx.com">
  <metadata>
    <name>Le puy - monastier sur Gazeille</name>
    <desc><![CDATA[ère étape du chemin de Stevenson]]></desc>
  </metadata>
  <trk>
    <name><![CDATA[OR-6076396--Puy-en-Velay (Le):Le Puy - Monastier]]></name>
    <trkseg>
      <trkpt lat="45.04287" lon="3.89188">
        <ele>630</ele>
        <time>2016-08-11T19:21:50Z</time>
      </trkpt>
      <trkpt lat="45.04232" lon="3.89087">
        <ele>630</ele>
        <time>2016-08-11T19:23:50Z</time>
      </trkpt>
      <trkpt lat="45.04124" lon="3.89018">
        <ele>635</ele>
        <time>2016-08-11T19:25:50Z</time>
      </trkpt>
      <trkpt lat="45.04115" lon="3.89065">
        <ele>638</ele>
        <time>2016-08-11T19:27:50Z</time>
      </trkpt>
      <trkpt lat="45.04153" lon="3.89175">
        <ele>642</ele>
        <time>2016-08-11T19:29:50Z</time>
      </trkpt>
      <trkpt lat="45.04085" lon="3.89261">
        <ele>654</ele>
        <time>2016-08-11T19:31:50Z</time>
      </trkpt>
      <trkpt lat="45.04037" lon="3.89372">
        <ele>664</ele>
        <time>2016-08-11T19:33:50Z</time>
      </trkpt>
      <trkpt lat="45.04" lon="3.89554">
        <ele>674</ele>
        <time>2016-08-11T19:35:50Z</time>
      </trkpt>
      <trkpt lat="45.03935" lon="3.8961">
        <ele>686</ele>
        <time>2016-08-11T19:37:50Z</time>
      </trkpt>
      <trkpt lat="45.03864" lon="3.897">
        <ele>699</ele>
        <time>2016-08-11T19:39:50Z</time>
      </trkpt>
      <trkpt lat="45.03767" lon="3.897">
        <ele>705</ele>
        <time>2016-08-11T19:41:50Z</time>
      </trkpt>
      <trkpt lat="45.03738" lon="3.89741">
        <ele>710</ele>
        <time>2016-08-11T19:43:50Z</time>
      </trkpt>
      <trkpt lat="45.03691" lon="3.89795">
        <ele>721</ele>
        <time>2016-08-11T19:45:50Z</time>
      </trkpt>
      <trkpt lat="45.03635" lon="3.89851">
        <ele>735</ele>
        <time>2016-08-11T19:47:50Z</time>
      </trkpt>
      <trkpt lat="45.03574" lon="3.89902">
        <ele>749</ele>
        <time>2016-08-11T19:49:50Z</time>
      </trkpt>
      <trkpt lat="45.0355" lon="3.90003">
        <ele>756</ele>
        <time>2016-08-11T19:51:50Z</time>
      </trkpt>
      <trkpt lat="45.03507" lon="3.90057">
        <ele>769</ele>
        <time>2016-08-11T19:53:50Z</time>
      </trkpt>
      <trkpt lat="45.03489" lon="3.90108">
        <ele>775</ele>
        <time>2016-08-11T19:55:50Z</time>
      </trkpt>
      <trkpt lat="45.03415" lon="3.90145">
        <ele>781</ele>
        <time>2016-08-11T19:57:50Z</time>
      </trkpt>
      <trkpt lat="45.03375" lon="3.90157">
        <ele>780</ele>
        <time>2016-08-11T19:59:50Z</time>
      </trkpt>
      <trkpt lat="45.03319" lon="3.902">
        <ele>777</ele>
        <time>2016-08-11T20:01:50Z</time>
      </trkpt>
      <trkpt lat="45.03271" lon="3.90183">
        <ele>773</ele>
        <time>2016-08-11T20:03:50Z</time>
      </trkpt>
      <trkpt lat="45.03221" lon="3.90218">
        <ele>765</ele>
        <time>2016-08-11T20:05:50Z</time>
      </trkpt>
      <trkpt lat="45.03195" lon="3.90258">
        <ele>759</ele>
        <time>2016-08-11T20:07:50Z</time>
      </trkpt>
      <trkpt lat="45.03154" lon="3.90275">
        <ele>755</ele>
        <time>2016-08-11T20:09:50Z</time>
      </trkpt>
      <trkpt lat="45.03159" lon="3.90359">
        <ele>751</ele>
        <time>2016-08-11T20:11:50Z</time>
      </trkpt>
      <trkpt lat="45.03171" lon="3.90522">
        <ele>748</ele>
        <time>2016-08-11T20:13:50Z</time>
      </trkpt>
      <trkpt lat="45.03142" lon="3.90569">
        <ele>748</ele>
        <time>2016-08-11T20:15:50Z</time>
      </trkpt>
      <trkpt lat="45.0311" lon="3.90612">
        <ele>750</ele>
        <time>2016-08-11T20:17:50Z</time>
      </trkpt>
      <trkpt lat="45.0311" lon="3.9069">
        <ele>755</ele>
        <time>2016-08-11T20:19:50Z</time>
      </trkpt>
      <trkpt lat="45.03077" lon="3.90741">
        <ele>757</ele>
        <time>2016-08-11T20:21:50Z</time>
      </trkpt>
      <trkpt lat="45.03013" lon="3.90752">
        <ele>760</ele>
        <time>2016-08-11T20:23:50Z</time>
      </trkpt>
      <trkpt lat="45.02966" lon="3.90835">
        <ele>771</ele>
        <time>2016-08-11T20:25:50Z</time>
      </trkpt>
      <trkpt lat="45.02904" lon="3.90908">
        <ele>787</ele>
        <time>2016-08-11T20:27:50Z</time>
      </trkpt>
      <trkpt lat="45.02836" lon="3.90956">
        <ele>801</ele>
        <time>2016-08-11T20:29:50Z</time>
      </trkpt>
      <trkpt lat="45.0277" lon="3.90973">
        <ele>806</ele>
        <time>2016-08-11T20:31:50Z</time>
      </trkpt>
      <trkpt lat="45.02742" lon="3.90992">
        <ele>810</ele>
        <time>2016-08-11T20:33:50Z</time>
      </trkpt>
      <trkpt lat="45.02708" lon="3.91018">
        <ele>814</ele>
        <time>2016-08-11T20:35:50Z</time>
      </trkpt>
      <trkpt lat="45.02646" lon="3.91007">
        <ele>816</ele>
        <time>2016-08-11T20:37:50Z</time>
      </trkpt>
      <trkpt lat="45.02569" lon="3.91033">
        <ele>822</ele>
        <time>2016-08-11T20:39:50Z</time>
      </trkpt>
      <trkpt lat="45.02488" lon="3.91054">
        <ele>826</ele>
        <time>2016-08-11T20:41:50Z</time>
      </trkpt>
      <trkpt lat="45.02435" lon="3.91052">
        <ele>828</ele>
        <time>2016-08-11T20:43:50Z</time>
      </trkpt>
      <trkpt lat="45.02394" lon="3.91065">
        <ele>829</ele>
        <time>2016-08-11T20:45:50Z</time>
      </trkpt>
      <trkpt lat="45.02364" lon="3.91104">
        <ele>831</ele>
        <time>2016-08-11T20:47:50Z</time>
      </trkpt>
      <trkpt lat="45.02291" lon="3.9114">
        <ele>832</ele>
        <time>2016-08-11T20:49:50Z</time>
      </trkpt>
      <trkpt lat="45.02217" lon="3.91181">
        <ele>831</ele>
        <time>2016-08-11T20:51:50Z</time>
      </trkpt>
      <trkpt lat="45.02162" lon="3.91239">
        <ele>828</ele>
        <time>2016-08-11T20:53:50Z</time>
      </trkpt>
      <trkpt lat="45.0213" lon="3.91297">
        <ele>827</ele>
        <time>2016-08-11T20:55:50Z</time>
      </trkpt>
      <trkpt lat="45.021" lon="3.91325">
        <ele>825</ele>
        <time>2016-08-11T20:57:50Z</time>
      </trkpt>
      <trkpt lat="45.0203" lon="3.91335">
        <ele>819</ele>
        <time>2016-08-11T20:59:50Z</time>
      </trkpt>
      <trkpt lat="45.01951" lon="3.91363">
        <ele>810</ele>
        <time>2016-08-11T21:01:50Z</time>
      </trkpt>
      <trkpt lat="45.01891" lon="3.91387">
        <ele>803</ele>
        <time>2016-08-11T21:03:50Z</time>
      </trkpt>
      <trkpt lat="45.01772" lon="3.91404">
        <ele>797</ele>
        <time>2016-08-11T21:05:50Z</time>
      </trkpt>
      <trkpt lat="45.01731" lon="3.91408">
        <ele>795</ele>
        <time>2016-08-11T21:07:50Z</time>
      </trkpt>
      <trkpt lat="45.01681" lon="3.9146">
        <ele>794</ele>
        <time>2016-08-11T21:09:50Z</time>
      </trkpt>
      <trkpt lat="45.0163" lon="3.91499">
        <ele>792</ele>
        <time>2016-08-11T21:11:50Z</time>
      </trkpt>
      <trkpt lat="45.01601" lon="3.9149">
        <ele>791</ele>
        <time>2016-08-11T21:13:50Z</time>
      </trkpt>
      <trkpt lat="45.01575" lon="3.91408">
        <ele>788</ele>
        <time>2016-08-11T21:15:50Z</time>
      </trkpt>
      <trkpt lat="45.01545" lon="3.91368">
        <ele>787</ele>
        <time>2016-08-11T21:17:50Z</time>
      </trkpt>
      <trkpt lat="45.01484" lon="3.91381">
        <ele>786</ele>
        <time>2016-08-11T21:19:50Z</time>
      </trkpt>
      <trkpt lat="45.01446" lon="3.91372">
        <ele>784</ele>
        <time>2016-08-11T21:21:50Z</time>
      </trkpt>
      <trkpt lat="45.01419" lon="3.91342">
        <ele>784</ele>
        <time>2016-08-11T21:23:50Z</time>
      </trkpt>
      <trkpt lat="45.01384" lon="3.91387">
        <ele>783</ele>
        <time>2016-08-11T21:25:50Z</time>
      </trkpt>
      <trkpt lat="45.01342" lon="3.91404">
        <ele>783</ele>
        <time>2016-08-11T21:27:50Z</time>
      </trkpt>
      <trkpt lat="45.01319" lon="3.91312">
        <ele>786</ele>
        <time>2016-08-11T21:29:50Z</time>
      </trkpt>
      <trkpt lat="45.01302" lon="3.91243">
        <ele>787</ele>
        <time>2016-08-11T21:31:50Z</time>
      </trkpt>
      <trkpt lat="45.01326" lon="3.91121">
        <ele>788</ele>
        <time>2016-08-11T21:33:50Z</time>
      </trkpt>
      <trkpt lat="45.01345" lon="3.91011">
        <ele>791</ele>
        <time>2016-08-11T21:35:50Z</time>
      </trkpt>
      <trkpt lat="45.01342" lon="3.90943">
        <ele>794</ele>
        <time>2016-08-11T21:37:50Z</time>
      </trkpt>
      <trkpt lat="45.01308" lon="3.90803">
        <ele>803</ele>
        <time>2016-08-11T21:39:50Z</time>
      </trkpt>
      <trkpt lat="45.01238" lon="3.90687">
        <ele>808</ele>
        <time>2016-08-11T21:41:50Z</time>
      </trkpt>
      <trkpt lat="45.01166" lon="3.90756">
        <ele>805</ele>
        <time>2016-08-11T21:43:50Z</time>
      </trkpt>
      <trkpt lat="45.0112" lon="3.90833">
        <ele>804</ele>
        <time>2016-08-11T21:45:50Z</time>
      </trkpt>
      <trkpt lat="45.01084" lon="3.90943">
        <ele>800</ele>
        <time>2016-08-11T21:47:50Z</time>
      </trkpt>
      <trkpt lat="45.01043" lon="3.91044">
        <ele>797</ele>
        <time>2016-08-11T21:49:50Z</time>
      </trkpt>
      <trkpt lat="45.01008" lon="3.91095">
        <ele>791</ele>
        <time>2016-08-11T21:51:50Z</time>
      </trkpt>
      <trkpt lat="45.00929" lon="3.91091">
        <ele>786</ele>
        <time>2016-08-11T21:53:50Z</time>
      </trkpt>
      <trkpt lat="45.00853" lon="3.91061">
        <ele>785</ele>
        <time>2016-08-11T21:55:50Z</time>
      </trkpt>
      <trkpt lat="45.00771" lon="3.91065">
        <ele>769</ele>
        <time>2016-08-11T21:57:50Z</time>
      </trkpt>
      <trkpt lat="45.00671" lon="3.91134">
        <ele>752</ele>
        <time>2016-08-11T21:59:50Z</time>
      </trkpt>
      <trkpt lat="45.00613" lon="3.91172">
        <ele>745</ele>
        <time>2016-08-11T22:01:50Z</time>
      </trkpt>
      <trkpt lat="45.00604" lon="3.91224">
        <ele>738</ele>
        <time>2016-08-11T22:03:50Z</time>
      </trkpt>
      <trkpt lat="45.00535" lon="3.91237">
        <ele>731</ele>
        <time>2016-08-11T22:05:50Z</time>
      </trkpt>
      <trkpt lat="45.00462" lon="3.91305">
        <ele>721</ele>
        <time>2016-08-11T22:07:50Z</time>
      </trkpt>
      <trkpt lat="45.00431" lon="3.91284">
        <ele>720</ele>
        <time>2016-08-11T22:09:50Z</time>
      </trkpt>
      <trkpt lat="45.00395" lon="3.9131">
        <ele>715</ele>
        <time>2016-08-11T22:11:50Z</time>
      </trkpt>
      <trkpt lat="45.00418" lon="3.91353">
        <ele>717</ele>
        <time>2016-08-11T22:13:50Z</time>
      </trkpt>
      <trkpt lat="45.00369" lon="3.91462">
        <ele>702</ele>
        <time>2016-08-11T22:15:50Z</time>
      </trkpt>
      <trkpt lat="45.00299" lon="3.9152">
        <ele>689</ele>
        <time>2016-08-11T22:17:50Z</time>
      </trkpt>
      <trkpt lat="45.00258" lon="3.91595">
        <ele>680</ele>
        <time>2016-08-11T22:19:50Z</time>
      </trkpt>
      <trkpt lat="45.00223" lon="3.91629">
        <ele>676</ele>
        <time>2016-08-11T22:21:50Z</time>
      </trkpt>
      <trkpt lat="45.00157" lon="3.91672">
        <ele>668</ele>
        <time>2016-08-11T22:23:50Z</time>
      </trkpt>
      <trkpt lat="45.00098" lon="3.917">
        <ele>661</ele>
        <time>2016-08-11T22:25:50Z</time>
      </trkpt>
      <trkpt lat="45.00013" lon="3.91707">
        <ele>652</ele>
        <time>2016-08-11T22:27:50Z</time>
      </trkpt>
      <trkpt lat="44.99946" lon="3.917">
        <ele>643</ele>
        <time>2016-08-11T22:29:50Z</time>
      </trkpt>
      <trkpt lat="44.99897" lon="3.9175">
        <ele>634</ele>
        <time>2016-08-11T22:31:50Z</time>
      </trkpt>
      <trkpt lat="44.99878" lon="3.9172">
        <ele>632</ele>
        <time>2016-08-11T22:33:50Z</time>
      </trkpt>
      <trkpt lat="44.99736" lon="3.91771">
        <ele>630</ele>
        <time>2016-08-11T22:35:50Z</time>
      </trkpt>
      <trkpt lat="44.99683" lon="3.91838">
        <ele>633</ele>
        <time>2016-08-11T22:37:50Z</time>
      </trkpt>
      <trkpt lat="44.99642" lon="3.91842">
        <ele>634</ele>
        <time>2016-08-11T22:39:50Z</time>
      </trkpt>
      <trkpt lat="44.99573" lon="3.91816">
        <ele>636</ele>
        <time>2016-08-11T22:41:50Z</time>
      </trkpt>
      <trkpt lat="44.99494" lon="3.91782">
        <ele>645</ele>
        <time>2016-08-11T22:43:50Z</time>
      </trkpt>
      <trkpt lat="44.99457" lon="3.91805">
        <ele>649</ele>
        <time>2016-08-11T22:45:50Z</time>
      </trkpt>
      <trkpt lat="44.9939" lon="3.9188">
        <ele>660</ele>
        <time>2016-08-11T22:47:50Z</time>
      </trkpt>
      <trkpt lat="44.99327" lon="3.91962">
        <ele>672</ele>
        <time>2016-08-11T22:49:50Z</time>
      </trkpt>
      <trkpt lat="44.99313" lon="3.92014">
        <ele>675</ele>
        <time>2016-08-11T22:51:50Z</time>
      </trkpt>
      <trkpt lat="44.99278" lon="3.92074">
        <ele>678</ele>
        <time>2016-08-11T22:53:50Z</time>
      </trkpt>
      <trkpt lat="44.99184" lon="3.92044">
        <ele>688</ele>
        <time>2016-08-11T22:55:50Z</time>
      </trkpt>
      <trkpt lat="44.99146" lon="3.91962">
        <ele>698</ele>
        <time>2016-08-11T22:57:50Z</time>
      </trkpt>
      <trkpt lat="44.99073" lon="3.9187">
        <ele>714</ele>
        <time>2016-08-11T22:59:50Z</time>
      </trkpt>
      <trkpt lat="44.99073" lon="3.91762">
        <ele>723</ele>
        <time>2016-08-11T23:01:50Z</time>
      </trkpt>
      <trkpt lat="44.99076" lon="3.9169">
        <ele>734</ele>
        <time>2016-08-11T23:03:50Z</time>
      </trkpt>
      <trkpt lat="44.9904" lon="3.91651">
        <ele>742</ele>
        <time>2016-08-11T23:05:50Z</time>
      </trkpt>
      <trkpt lat="44.99096" lon="3.91574">
        <ele>743</ele>
        <time>2016-08-11T23:07:50Z</time>
      </trkpt>
      <trkpt lat="44.98979" lon="3.91505">
        <ele>767</ele>
        <time>2016-08-11T23:09:50Z</time>
      </trkpt>
      <trkpt lat="44.98946" lon="3.91453">
        <ele>772</ele>
        <time>2016-08-11T23:11:50Z</time>
      </trkpt>
      <trkpt lat="44.98876" lon="3.91342">
        <ele>772</ele>
        <time>2016-08-11T23:13:50Z</time>
      </trkpt>
      <trkpt lat="44.98829" lon="3.91333">
        <ele>777</ele>
        <time>2016-08-11T23:15:50Z</time>
      </trkpt>
      <trkpt lat="44.98691" lon="3.9137">
        <ele>792</ele>
        <time>2016-08-11T23:17:50Z</time>
      </trkpt>
      <trkpt lat="44.98607" lon="3.91385">
        <ele>800</ele>
        <time>2016-08-11T23:19:50Z</time>
      </trkpt>
      <trkpt lat="44.98518" lon="3.91428">
        <ele>809</ele>
        <time>2016-08-11T23:21:50Z</time>
      </trkpt>
      <trkpt lat="44.98428" lon="3.91346">
        <ele>807</ele>
        <time>2016-08-11T23:23:50Z</time>
      </trkpt>
      <trkpt lat="44.98409" lon="3.91411">
        <ele>810</ele>
        <time>2016-08-11T23:25:50Z</time>
      </trkpt>
      <trkpt lat="44.98407" lon="3.9149">
        <ele>813</ele>
        <time>2016-08-11T23:27:50Z</time>
      </trkpt>
      <trkpt lat="44.98374" lon="3.91576">
        <ele>816</ele>
        <time>2016-08-11T23:29:50Z</time>
      </trkpt>
      <trkpt lat="44.98308" lon="3.91653">
        <ele>821</ele>
        <time>2016-08-11T23:31:50Z</time>
      </trkpt>
      <trkpt lat="44.98257" lon="3.9169">
        <ele>826</ele>
        <time>2016-08-11T23:33:50Z</time>
      </trkpt>
      <trkpt lat="44.98205" lon="3.91681">
        <ele>831</ele>
        <time>2016-08-11T23:35:50Z</time>
      </trkpt>
      <trkpt lat="44.98151" lon="3.91713">
        <ele>838</ele>
        <time>2016-08-11T23:37:50Z</time>
      </trkpt>
      <trkpt lat="44.98149" lon="3.91833">
        <ele>839</ele>
        <time>2016-08-11T23:39:50Z</time>
      </trkpt>
      <trkpt lat="44.9812" lon="3.91887">
        <ele>843</ele>
        <time>2016-08-11T23:41:50Z</time>
      </trkpt>
      <trkpt lat="44.98049" lon="3.91981">
        <ele>850</ele>
        <time>2016-08-11T23:43:50Z</time>
      </trkpt>
      <trkpt lat="44.98014" lon="3.92044">
        <ele>852</ele>
        <time>2016-08-11T23:45:50Z</time>
      </trkpt>
      <trkpt lat="44.97968" lon="3.92121">
        <ele>856</ele>
        <time>2016-08-11T23:47:50Z</time>
      </trkpt>
      <trkpt lat="44.97932" lon="3.92183">
        <ele>860</ele>
        <time>2016-08-11T23:49:50Z</time>
      </trkpt>
      <trkpt lat="44.97886" lon="3.92282">
        <ele>869</ele>
        <time>2016-08-11T23:51:50Z</time>
      </trkpt>
      <trkpt lat="44.97841" lon="3.92383">
        <ele>875</ele>
        <time>2016-08-11T23:53:50Z</time>
      </trkpt>
      <trkpt lat="44.97776" lon="3.92481">
        <ele>881</ele>
        <time>2016-08-11T23:55:50Z</time>
      </trkpt>
      <trkpt lat="44.9771" lon="3.92559">
        <ele>886</ele>
        <time>2016-08-11T23:57:50Z</time>
      </trkpt>
      <trkpt lat="44.97657" lon="3.9264">
        <ele>889</ele>
        <time>2016-08-11T23:59:50Z</time>
      </trkpt>
      <trkpt lat="44.97595" lon="3.92732">
        <ele>887</ele>
        <time>2016-08-12T00:01:50Z</time>
      </trkpt>
      <trkpt lat="44.97534" lon="3.9276">
        <ele>885</ele>
        <time>2016-08-12T00:03:50Z</time>
      </trkpt>
      <trkpt lat="44.97474" lon="3.92784">
        <ele>882</ele>
        <time>2016-08-12T00:05:50Z</time>
      </trkpt>
      <trkpt lat="44.97414" lon="3.92829">
        <ele>881</ele>
        <time>2016-08-12T00:07:50Z</time>
      </trkpt>
      <trkpt lat="44.97352" lon="3.92906">
        <ele>877</ele>
        <time>2016-08-12T00:09:50Z</time>
      </trkpt>
      <trkpt lat="44.97317" lon="3.92986">
        <ele>877</ele>
        <time>2016-08-12T00:11:50Z</time>
      </trkpt>
      <trkpt lat="44.97293" lon="3.93048">
        <ele>874</ele>
        <time>2016-08-12T00:13:50Z</time>
      </trkpt>
      <trkpt lat="44.97258" lon="3.9314">
        <ele>876</ele>
        <time>2016-08-12T00:15:50Z</time>
      </trkpt>
      <trkpt lat="44.97187" lon="3.93359">
        <ele>880</ele>
        <time>2016-08-12T00:17:50Z</time>
      </trkpt>
      <trkpt lat="44.97106" lon="3.9349">
        <ele>883</ele>
        <time>2016-08-12T00:19:50Z</time>
      </trkpt>
      <trkpt lat="44.97032" lon="3.93631">
        <ele>890</ele>
        <time>2016-08-12T00:21:50Z</time>
      </trkpt>
      <trkpt lat="44.96976" lon="3.93739">
        <ele>890</ele>
        <time>2016-08-12T00:23:50Z</time>
      </trkpt>
      <trkpt lat="44.96932" lon="3.93859">
        <ele>889</ele>
        <time>2016-08-12T00:25:50Z</time>
      </trkpt>
      <trkpt lat="44.96874" lon="3.93951">
        <ele>888</ele>
        <time>2016-08-12T00:27:50Z</time>
      </trkpt>
      <trkpt lat="44.96812" lon="3.94039">
        <ele>893</ele>
        <time>2016-08-12T00:29:50Z</time>
      </trkpt>
      <trkpt lat="44.9673" lon="3.94108">
        <ele>891</ele>
        <time>2016-08-12T00:31:50Z</time>
      </trkpt>
      <trkpt lat="44.96651" lon="3.94191">
        <ele>887</ele>
        <time>2016-08-12T00:33:50Z</time>
      </trkpt>
      <trkpt lat="44.96567" lon="3.94258">
        <ele>891</ele>
        <time>2016-08-12T00:35:50Z</time>
      </trkpt>
      <trkpt lat="44.96476" lon="3.94402">
        <ele>889</ele>
        <time>2016-08-12T00:37:50Z</time>
      </trkpt>
      <trkpt lat="44.96379" lon="3.94554">
        <ele>887</ele>
        <time>2016-08-12T00:39:50Z</time>
      </trkpt>
      <trkpt lat="44.96252" lon="3.94743">
        <ele>891</ele>
        <time>2016-08-12T00:41:50Z</time>
      </trkpt>
      <trkpt lat="44.962" lon="3.94867">
        <ele>895</ele>
        <time>2016-08-12T00:43:50Z</time>
      </trkpt>
      <trkpt lat="44.96214" lon="3.95039">
        <ele>907</ele>
        <time>2016-08-12T00:45:50Z</time>
      </trkpt>
      <trkpt lat="44.96224" lon="3.95292">
        <ele>909</ele>
        <time>2016-08-12T00:47:50Z</time>
      </trkpt>
      <trkpt lat="44.96239" lon="3.95509">
        <ele>906</ele>
        <time>2016-08-12T00:49:50Z</time>
      </trkpt>
      <trkpt lat="44.96248" lon="3.95739">
        <ele>912</ele>
        <time>2016-08-12T00:51:50Z</time>
      </trkpt>
      <trkpt lat="44.96245" lon="3.95882">
        <ele>900</ele>
        <time>2016-08-12T00:53:50Z</time>
      </trkpt>
      <trkpt lat="44.96189" lon="3.95996">
        <ele>895</ele>
        <time>2016-08-12T00:55:50Z</time>
      </trkpt>
      <trkpt lat="44.96135" lon="3.96118">
        <ele>890</ele>
        <time>2016-08-12T00:57:50Z</time>
      </trkpt>
      <trkpt lat="44.9604" lon="3.96181">
        <ele>896</ele>
        <time>2016-08-12T00:59:50Z</time>
      </trkpt>
      <trkpt lat="44.95998" lon="3.9626">
        <ele>891</ele>
        <time>2016-08-12T01:01:50Z</time>
      </trkpt>
      <trkpt lat="44.95934" lon="3.96335">
        <ele>897</ele>
        <time>2016-08-12T01:03:50Z</time>
      </trkpt>
      <trkpt lat="44.95904" lon="3.96442">
        <ele>896</ele>
        <time>2016-08-12T01:05:50Z</time>
      </trkpt>
      <trkpt lat="44.95854" lon="3.96552">
        <ele>895</ele>
        <time>2016-08-12T01:07:50Z</time>
      </trkpt>
      <trkpt lat="44.95791" lon="3.9662">
        <ele>894</ele>
        <time>2016-08-12T01:09:50Z</time>
      </trkpt>
      <trkpt lat="44.95713" lon="3.96687">
        <ele>895</ele>
        <time>2016-08-12T01:11:50Z</time>
      </trkpt>
      <trkpt lat="44.95634" lon="3.96818">
        <ele>892</ele>
        <time>2016-08-12T01:13:50Z</time>
      </trkpt>
      <trkpt lat="44.95574" lon="3.96917">
        <ele>895</ele>
        <time>2016-08-12T01:15:50Z</time>
      </trkpt>
      <trkpt lat="44.95553" lon="3.96975">
        <ele>894</ele>
        <time>2016-08-12T01:17:50Z</time>
      </trkpt>
      <trkpt lat="44.95536" lon="3.9706">
        <ele>893</ele>
        <time>2016-08-12T01:19:50Z</time>
      </trkpt>
      <trkpt lat="44.95535" lon="3.97159">
        <ele>891</ele>
        <time>2016-08-12T01:21:50Z</time>
      </trkpt>
      <trkpt lat="44.95518" lon="3.97219">
        <ele>892</ele>
        <time>2016-08-12T01:23:50Z</time>
      </trkpt>
      <trkpt lat="44.95498" lon="3.97337">
        <ele>896</ele>
        <time>2016-08-12T01:25:50Z</time>
      </trkpt>
      <trkpt lat="44.95497" lon="3.97472">
        <ele>900</ele>
        <time>2016-08-12T01:27:50Z</time>
      </trkpt>
      <trkpt lat="44.95483" lon="3.97612">
        <ele>905</ele>
        <time>2016-08-12T01:29:50Z</time>
      </trkpt>
      <trkpt lat="44.95471" lon="3.97758">
        <ele>913</ele>
        <time>2016-08-12T01:31:50Z</time>
      </trkpt>
      <trkpt lat="44.95501" lon="3.97859">
        <ele>914</ele>
        <time>2016-08-12T01:33:50Z</time>
      </trkpt>
      <trkpt lat="44.9547" lon="3.9812">
        <ele>916</ele>
        <time>2016-08-12T01:35:50Z</time>
      </trkpt>
      <trkpt lat="44.95403" lon="3.9823">
        <ele>922</ele>
        <time>2016-08-12T01:37:50Z</time>
      </trkpt>
      <trkpt lat="44.95328" lon="3.98337">
        <ele>927</ele>
        <time>2016-08-12T01:39:50Z</time>
      </trkpt>
      <trkpt lat="44.95251" lon="3.98412">
        <ele>931</ele>
        <time>2016-08-12T01:41:50Z</time>
      </trkpt>
      <trkpt lat="44.9516" lon="3.98494">
        <ele>928</ele>
        <time>2016-08-12T01:43:50Z</time>
      </trkpt>
      <trkpt lat="44.95061" lon="3.98522">
        <ele>930</ele>
        <time>2016-08-12T01:45:50Z</time>
      </trkpt>
      <trkpt lat="44.95" lon="3.98513">
        <ele>934</ele>
        <time>2016-08-12T01:47:50Z</time>
      </trkpt>
      <trkpt lat="44.94918" lon="3.98552">
        <ele>932</ele>
        <time>2016-08-12T01:49:50Z</time>
      </trkpt>
      <trkpt lat="44.94861" lon="3.98616">
        <ele>931</ele>
        <time>2016-08-12T01:51:50Z</time>
      </trkpt>
      <trkpt lat="44.94792" lon="3.98689">
        <ele>929</ele>
        <time>2016-08-12T01:53:50Z</time>
      </trkpt>
      <trkpt lat="44.94753" lon="3.98743">
        <ele>931</ele>
        <time>2016-08-12T01:55:50Z</time>
      </trkpt>
      <trkpt lat="44.94704" lon="3.98856">
        <ele>931</ele>
        <time>2016-08-12T01:57:50Z</time>
      </trkpt>
      <trkpt lat="44.94674" lon="3.98893">
        <ele>931</ele>
        <time>2016-08-12T01:59:50Z</time>
      </trkpt>
      <trkpt lat="44.94577" lon="3.98983">
        <ele>932</ele>
        <time>2016-08-12T02:01:50Z</time>
      </trkpt>
      <trkpt lat="44.94495" lon="3.99049">
        <ele>936</ele>
        <time>2016-08-12T02:03:50Z</time>
      </trkpt>
      <trkpt lat="44.94362" lon="3.99135">
        <ele>934</ele>
        <time>2016-08-12T02:05:50Z</time>
      </trkpt>
      <trkpt lat="44.94308" lon="3.99213">
        <ele>933</ele>
        <time>2016-08-12T02:07:50Z</time>
      </trkpt>
      <trkpt lat="44.9422" lon="3.99271">
        <ele>931</ele>
        <time>2016-08-12T02:09:50Z</time>
      </trkpt>
      <trkpt lat="44.94144" lon="3.99316">
        <ele>932</ele>
        <time>2016-08-12T02:11:50Z</time>
      </trkpt>
      <trkpt lat="44.94077" lon="3.99348">
        <ele>934</ele>
        <time>2016-08-12T02:13:50Z</time>
      </trkpt>
      <trkpt lat="44.93998" lon="3.9941">
        <ele>933</ele>
        <time>2016-08-12T02:15:50Z</time>
      </trkpt>
      <trkpt lat="44.9393" lon="3.99434">
        <ele>932</ele>
        <time>2016-08-12T02:17:50Z</time>
      </trkpt>
      <trkpt lat="44.93884" lon="3.99532">
        <ele>942</ele>
        <time>2016-08-12T02:19:50Z</time>
      </trkpt>
      <trkpt lat="44.93819" lon="3.99554">
        <ele>944</ele>
        <time>2016-08-12T02:21:50Z</time>
      </trkpt>
      <trkpt lat="44.93712" lon="3.99573">
        <ele>943</ele>
        <time>2016-08-12T02:23:50Z</time>
      </trkpt>
      <trkpt lat="44.93668" lon="3.9959">
        <ele>942</ele>
        <time>2016-08-12T02:25:50Z</time>
      </trkpt>
      <trkpt lat="44.93621" lon="3.99605">
        <ele>939</ele>
        <time>2016-08-12T02:27:50Z</time>
      </trkpt>
      <trkpt lat="44.93556" lon="3.99642">
        <ele>937</ele>
        <time>2016-08-12T02:29:50Z</time>
      </trkpt>
      <trkpt lat="44.93501" lon="3.99698">
        <ele>937</ele>
        <time>2016-08-12T02:31:50Z</time>
      </trkpt>
      <trkpt lat="44.93532" lon="3.99762">
        <ele>945</ele>
        <time>2016-08-12T02:33:50Z</time>
      </trkpt>
    </trkseg>
  </trk>
</gpx>